createdAt,value
2023-01-03T00:02:07.842Z,58.10
2023-01-03T00:04:34.697Z,42.13
2023-01-03T00:07:04.568Z,42.13
2023-01-03T00:09:31.643Z,42.65
2023-01-03T00:12:17.036Z,57.72
2023-01-03T00:14:44.878Z,52.38
2023-01-03T00:17:12.995Z,61.67
2023-01-03T00:19:44.592Z,71.10
2023-01-03T00:22:12.945Z,71.53
2023-01-03T00:24:39.841Z,74.00
2023-01-03T00:27:06.941Z,61.78
2023-01-03T00:29:34.223Z,52.53
2023-01-03T00:32:01.178Z,62.22
2023-01-03T00:34:28.370Z,51.40
2023-01-03T00:36:55.863Z,53.90
2023-01-03T00:39:23.188Z,55.08
2023-01-03T00:41:50.485Z,52.35
2023-01-03T00:44:18.169Z,57.97
2023-01-03T00:46:45.969Z,56.78
2023-01-03T00:49:12.912Z,58.75
2023-01-03T00:51:41.257Z,59.33
2023-01-03T00:54:09.458Z,55.55
2023-01-03T00:56:39.197Z,55.13
2023-01-03T00:59:07.060Z,52.28
2023-01-03T01:01:47.562Z,48.92
2023-01-03T01:04:22.764Z,57.97
2023-01-03T01:06:56.094Z,49.47
2023-01-03T01:09:25.881Z,59.65
2023-01-03T01:11:53.165Z,50.75
2023-01-03T01:14:23.399Z,52.50
2023-01-03T01:16:57.376Z,49.60
2023-01-03T01:19:27.290Z,52.00
2023-01-03T01:21:54.475Z,56.03
2023-01-03T01:24:21.678Z,48.03
2023-01-03T01:26:48.750Z,44.97
2023-01-03T01:29:17.504Z,38.40
2023-01-03T01:31:46.511Z,52.97
2023-01-03T01:34:14.737Z,45.00
2023-01-03T01:36:43.216Z,53.47
2023-01-03T01:39:17.101Z,50.80
2023-01-03T01:42:03.955Z,49.50
2023-01-03T01:44:42.886Z,46.88
2023-01-03T01:47:24.722Z,52.80
2023-01-03T01:50:13.713Z,47.80
2023-01-03T01:52:48.748Z,49.75
2023-01-03T01:55:20.803Z,51.72
2023-01-03T01:57:48.045Z,53.17
2023-01-03T02:00:15.662Z,53.22
2023-01-03T02:02:44.117Z,50.22
2023-01-03T02:05:12.063Z,52.97
2023-01-03T02:07:39.751Z,52.78
2023-01-03T02:10:07.689Z,50.75
2023-01-03T02:13:05.908Z,53.00
2023-01-03T02:15:58.240Z,45.28
2023-01-03T02:18:47.072Z,44.03
2023-01-03T02:21:34.952Z,47.08
2023-01-03T02:24:20.604Z,46.72
2023-01-03T02:27:30.360Z,42.95
2023-01-03T02:30:15.891Z,49.03
2023-01-03T02:33:09.075Z,45.47
2023-01-03T02:35:47.905Z,40.10
2023-01-03T02:38:37.482Z,36.17
2023-01-03T02:41:18.693Z,43.97
2023-01-03T02:44:17.468Z,41.78
2023-01-03T02:46:54.632Z,39.65
2023-01-03T02:49:53.510Z,36.40
2023-01-03T02:52:25.931Z,43.83
2023-01-03T02:55:03.143Z,34.65
2023-01-03T02:58:04.446Z,43.65
2023-01-03T03:00:35.402Z,43.45
2023-01-03T03:03:09.415Z,48.83
2023-01-03T03:06:17.978Z,48.25
2023-01-03T03:08:46.301Z,49.30
2023-01-03T03:11:32.684Z,67.13
2023-01-03T03:14:22.626Z,47.25
2023-01-03T03:16:51.805Z,44.92
2023-01-03T03:19:50.786Z,48.63
2023-01-03T03:22:54.213Z,48.80
2023-01-03T03:25:36.366Z,51.70
2023-01-03T03:28:29.323Z,46.33
2023-01-03T03:31:02.285Z,47.90
2023-01-03T03:33:38.008Z,42.55
2023-01-03T03:36:12.149Z,51.80
2023-01-03T03:38:45.126Z,41.92
2023-01-03T03:41:41.566Z,52.70
2023-01-03T03:44:38.824Z,56.53
2023-01-03T03:47:19.706Z,57.05
2023-01-03T03:49:51.838Z,64.97
2023-01-03T03:52:25.278Z,48.05
2023-01-03T03:55:02.404Z,66.95
2023-01-03T03:57:37.580Z,56.78
2023-01-03T04:00:15.632Z,59.25
2023-01-03T04:02:47.006Z,52.63
2023-01-03T04:05:18.298Z,46.80
2023-01-03T04:07:45.364Z,55.97
2023-01-03T04:10:13.445Z,66.38
2023-01-03T04:12:40.397Z,52.45
2023-01-03T04:15:07.911Z,55.60
2023-01-03T04:17:34.928Z,56.65
2023-01-03T04:20:04.194Z,58.67
2023-01-03T04:22:30.987Z,60.78
2023-01-03T04:24:58.088Z,50.83
2023-01-03T04:27:25.029Z,49.50
2023-01-03T04:29:51.826Z,58.85
2023-01-03T04:32:18.598Z,53.30
2023-01-03T04:34:45.861Z,50.13
2023-01-03T04:37:12.954Z,63.35
2023-01-03T04:39:39.784Z,47.20
2023-01-03T04:42:26.984Z,56.20
2023-01-03T04:44:53.910Z,50.35
2023-01-03T04:47:20.867Z,48.67
2023-01-03T04:49:47.930Z,60.20
2023-01-03T04:52:15.953Z,46.47
2023-01-03T04:54:43.263Z,54.58
2023-01-03T04:57:10.832Z,50.47
2023-01-03T04:59:38.824Z,44.30
2023-01-03T05:02:05.653Z,54.42
2023-01-03T05:04:32.784Z,37.97
2023-01-03T05:06:59.921Z,62.95
2023-01-03T05:09:27.461Z,53.85
2023-01-03T05:11:54.650Z,59.47
2023-01-03T05:14:21.360Z,64.47
2023-01-03T05:16:48.179Z,54.65
2023-01-03T05:19:15.173Z,50.20
2023-01-03T05:22:00.403Z,45.40
2023-01-03T05:24:45.994Z,42.90
2023-01-03T05:27:12.844Z,39.45
2023-01-03T05:29:39.819Z,43.13
2023-01-03T05:32:06.599Z,48.72
2023-01-03T05:34:33.313Z,48.13
2023-01-03T05:37:00.029Z,46.40
2023-01-03T05:39:26.959Z,52.85
2023-01-03T05:41:59.615Z,37.90
2023-01-03T05:44:34.057Z,45.00
2023-01-03T05:47:02.848Z,40.85
2023-01-03T05:49:29.690Z,45.28
2023-01-03T05:51:56.633Z,46.30
2023-01-03T05:54:23.402Z,47.58
2023-01-03T05:56:51.315Z,38.00
2023-01-03T05:59:19.537Z,41.40
2023-01-03T06:01:46.333Z,45.70
2023-01-03T06:04:13.371Z,48.20
2023-01-03T06:06:40.353Z,45.95
2023-01-03T06:09:07.231Z,46.40
2023-01-03T06:11:34.057Z,39.13
2023-01-03T06:14:00.905Z,45.95
2023-01-03T06:16:46.164Z,45.72
2023-01-03T06:19:13.075Z,48.15
2023-01-03T06:21:41.704Z,54.42
2023-01-03T06:24:09.624Z,48.97
2023-01-03T06:26:36.961Z,46.22
2023-01-03T06:29:05.353Z,49.83
2023-01-03T06:31:32.552Z,48.97
2023-01-03T06:33:59.967Z,44.45
2023-01-03T06:36:27.179Z,55.33
2023-01-03T06:39:03.690Z,51.60
2023-01-03T06:41:36.162Z,47.78
2023-01-03T06:44:09.420Z,65.70
2023-01-03T06:46:55.832Z,48.40
2023-01-03T06:49:41.547Z,49.90
2023-01-03T06:52:36.239Z,43.80
2023-01-03T06:55:03.649Z,43.90
2023-01-03T06:57:30.428Z,48.10
2023-01-03T06:59:57.243Z,42.17
2023-01-03T07:02:25.219Z,49.05
2023-01-03T07:04:52.065Z,48.13
2023-01-03T07:07:18.907Z,51.50
2023-01-03T07:09:45.797Z,54.83
2023-01-03T07:12:39.829Z,51.30
2023-01-03T07:15:07.107Z,55.08
2023-01-03T07:17:33.892Z,53.00
2023-01-03T07:20:04.588Z,46.90
2023-01-03T07:22:31.437Z,46.42
2023-01-03T07:24:58.237Z,47.85
2023-01-03T07:27:25.009Z,49.70
2023-01-03T07:30:00.445Z,47.42
2023-01-03T07:32:27.313Z,55.08
2023-01-03T07:34:54.022Z,63.10
2023-01-03T07:37:20.784Z,58.90
2023-01-03T07:39:47.836Z,54.67
2023-01-03T07:42:33.019Z,64.10
2023-01-03T07:45:00.063Z,60.25
2023-01-03T07:47:26.772Z,63.67
2023-01-03T07:49:54.903Z,50.78
2023-01-03T07:52:21.709Z,55.63
2023-01-03T07:54:52.442Z,53.95
2023-01-03T07:57:19.849Z,60.70
2023-01-03T07:59:48.273Z,51.67
2023-01-03T08:02:15.213Z,57.83
2023-01-03T08:04:42.082Z,64.28
2023-01-03T08:10:16.189Z,58.25
2023-01-03T08:13:02.004Z,69.82
2023-01-03T08:15:28.675Z,61.90
2023-01-03T08:17:55.363Z,55.10
2023-01-03T08:20:22.217Z,58.20
2023-01-03T08:22:49.284Z,52.42
2023-01-03T08:25:16.106Z,54.75
2023-01-03T08:27:48.196Z,53.58
2023-01-03T08:30:17.003Z,55.38
2023-01-03T08:32:43.865Z,60.28
2023-01-03T08:35:11.433Z,53.38
2023-01-03T08:37:38.453Z,46.70
2023-01-03T08:40:06.046Z,51.53
2023-01-03T08:42:34.031Z,56.20
2023-01-03T08:45:08.903Z,49.17
2023-01-03T08:47:36.085Z,47.55
2023-01-03T08:50:04.183Z,39.58
2023-01-03T08:52:35.050Z,44.17
2023-01-03T08:55:02.929Z,55.55
2023-01-03T08:57:29.918Z,41.55
2023-01-03T08:59:56.783Z,47.38
2023-01-03T09:02:23.859Z,59.80
2023-01-03T09:04:51.220Z,66.03
2023-01-03T09:07:18.161Z,65.68
2023-01-03T09:09:45.038Z,76.60
2023-01-03T09:12:11.876Z,61.05
2023-01-03T09:14:38.773Z,61.78
2023-01-03T09:17:08.538Z,63.70
2023-01-03T09:19:37.449Z,60.75
2023-01-03T09:22:04.283Z,73.15
2023-01-03T09:24:31.162Z,71.50
2023-01-03T09:26:58.090Z,61.08
2023-01-03T09:29:25.125Z,68.85
2023-01-03T09:31:52.315Z,78.47
2023-01-03T09:34:19.662Z,68.32
2023-01-03T09:36:46.544Z,62.97
2023-01-03T09:39:14.427Z,81.38
2023-01-03T09:41:41.971Z,72.45
2023-01-03T09:44:10.327Z,72.45
2023-01-03T09:46:37.909Z,77.22
2023-01-03T09:49:07.429Z,72.32
2023-01-03T09:51:59.938Z,65.70
2023-01-03T09:54:55.845Z,69.30
2023-01-03T09:57:50.690Z,70.13
2023-01-03T10:00:57.496Z,73.18
2023-01-03T10:03:48.364Z,80.80
2023-01-03T10:06:23.778Z,79.00
2023-01-03T10:09:09.616Z,80.80
2023-01-03T10:11:36.404Z,81.93
2023-01-03T10:14:30.231Z,73.63
2023-01-03T10:17:01.825Z,83.18
2023-01-03T10:19:43.979Z,87.47
2023-01-03T10:22:27.051Z,82.55
2023-01-03T10:24:59.317Z,84.82
2023-01-03T10:27:33.608Z,91.00
2023-01-03T10:30:02.693Z,86.05
2023-01-03T10:32:38.390Z,98.32
2023-01-03T10:35:23.565Z,94.95
2023-01-03T10:37:55.149Z,96.82
2023-01-03T10:40:35.483Z,101.38
2023-01-03T10:43:28.927Z,115.93
2023-01-03T10:45:57.583Z,118.60
2023-01-03T10:48:26.302Z,115.93
2023-01-03T10:50:54.052Z,105.72
2023-01-03T10:53:23.119Z,122.63
2023-01-03T10:55:54.400Z,130.13
2023-01-03T10:58:32.146Z,133.82
2023-01-03T11:01:21.105Z,114.97
2023-01-03T11:04:09.956Z,124.63
2023-01-03T11:06:37.070Z,100.90
2023-01-03T11:09:10.761Z,100.65
2023-01-03T11:11:41.668Z,107.20
2023-01-03T11:14:20.407Z,105.45
2023-01-03T11:17:03.937Z,111.63
2023-01-03T11:19:33.028Z,106.38
2023-01-03T11:22:03.007Z,106.93
2023-01-03T11:24:49.463Z,101.53
2023-01-03T11:27:52.145Z,94.13
2023-01-03T11:30:22.138Z,89.38
2023-01-03T11:33:04.013Z,88.22
2023-01-03T11:35:36.950Z,86.90
2023-01-03T11:38:31.343Z,88.03
2023-01-03T11:41:14.118Z,77.72
2023-01-03T11:43:58.971Z,96.00
2023-01-03T11:46:34.900Z,99.45
2023-01-03T11:49:25.781Z,88.75
2023-01-03T11:52:01.736Z,97.65
2023-01-03T11:55:03.806Z,94.45
2023-01-03T11:57:59.861Z,82.07
2023-01-03T12:00:31.694Z,78.93
2023-01-03T12:03:09.723Z,67.30
2023-01-03T12:06:08.426Z,67.25
2023-01-03T12:08:56.231Z,75.32
2023-01-03T12:11:25.534Z,70.60
2023-01-03T12:14:06.952Z,61.97
2023-01-03T12:16:40.774Z,68.80
2023-01-03T12:19:37.276Z,63.50
2023-01-03T12:22:22.666Z,65.47
2023-01-03T12:25:04.404Z,68.20
2023-01-03T12:27:44.645Z,64.78
2023-01-03T12:30:45.616Z,71.15
2023-01-03T12:33:39.042Z,61.72
2023-01-03T12:36:27.717Z,55.53
2023-01-03T12:39:08.082Z,63.08
2023-01-03T12:41:43.049Z,57.95
2023-01-03T12:44:22.492Z,53.03
2023-01-03T12:46:53.124Z,59.28
2023-01-03T12:49:52.377Z,52.97
2023-01-03T12:52:22.713Z,51.75
2023-01-03T12:55:25.028Z,54.97
2023-01-03T12:58:13.326Z,53.42
2023-01-03T13:00:52.945Z,54.58
2023-01-03T13:03:25.709Z,46.50
2023-01-03T13:06:01.065Z,49.03
2023-01-03T13:08:34.522Z,45.97
2023-01-03T13:11:18.487Z,51.63
2023-01-03T13:13:57.565Z,50.05
2023-01-03T13:16:36.593Z,49.90
2023-01-03T13:19:21.890Z,49.63
2023-01-03T13:21:54.787Z,45.17
2023-01-03T13:24:39.956Z,44.38
2023-01-03T13:27:37.548Z,43.60
2023-01-03T13:30:19.929Z,52.20
2023-01-03T13:32:50.217Z,45.53
2023-01-03T13:35:16.840Z,45.85
2023-01-03T13:37:51.551Z,49.35
2023-01-03T13:41:07.455Z,51.47
2023-01-03T13:43:32.347Z,47.22
2023-01-03T13:46:20.568Z,52.45
2023-01-03T13:49:05.753Z,55.33
2023-01-03T13:51:50.067Z,49.60
2023-01-03T13:54:16.856Z,48.65
2023-01-03T13:56:57.560Z,56.30
2023-01-03T13:59:58.932Z,53.38
2023-01-03T14:02:44.856Z,59.17
2023-01-03T14:05:30.146Z,58.50
2023-01-03T14:08:21.265Z,67.47
2023-01-03T14:10:54.152Z,56.13
2023-01-03T14:13:53.401Z,58.33
2023-01-03T14:16:41.708Z,55.40
2023-01-03T14:19:37.036Z,59.13
2023-01-03T14:22:31.502Z,51.90
2023-01-03T14:24:59.355Z,47.83
2023-01-03T14:27:46.810Z,50.70
2023-01-03T14:30:26.545Z,49.78
2023-01-03T14:32:53.741Z,39.25
2023-01-03T14:35:39.209Z,46.70
2023-01-03T14:38:07.515Z,51.55
2023-01-03T14:40:34.919Z,46.83
2023-01-03T14:43:05.542Z,63.63
2023-01-03T14:45:32.431Z,51.20
2023-01-03T14:48:00.502Z,51.22
2023-01-03T14:50:28.645Z,72.07
2023-01-03T14:52:59.783Z,68.93
2023-01-03T14:55:29.586Z,66.10
2023-01-03T14:57:57.695Z,79.20
2023-01-03T15:00:33.360Z,77.93
2023-01-03T15:03:02.531Z,81.70
2023-01-03T15:05:43.708Z,94.25
2023-01-03T15:08:34.756Z,112.57
2023-01-03T15:11:09.167Z,105.60
2023-01-03T15:14:14.576Z,80.05
2023-01-03T15:16:42.868Z,79.95
2023-01-03T15:19:22.624Z,82.05
2023-01-03T15:21:50.048Z,87.30
2023-01-03T15:24:22.061Z,87.22
2023-01-03T15:26:51.113Z,82.10
2023-01-03T15:29:47.582Z,78.70
2023-01-03T15:32:29.922Z,82.53
2023-01-03T15:34:59.879Z,81.72
2023-01-03T15:37:27.040Z,82.28
2023-01-03T15:39:56.918Z,72.85
2023-01-03T15:42:50.366Z,84.88
2023-01-03T15:45:39.588Z,71.32
2023-01-03T15:48:18.879Z,98.93
2023-01-03T15:50:53.360Z,93.30
2023-01-03T15:53:46.683Z,106.40
2023-01-03T15:56:23.103Z,93.93
2023-01-03T15:58:53.477Z,103.57
2023-01-03T16:01:25.155Z,109.35
2023-01-03T16:03:53.191Z,100.05
2023-01-03T16:06:20.537Z,87.38
2023-01-03T16:09:10.779Z,85.70
2023-01-03T16:11:41.096Z,60.67
2023-01-03T16:14:34.372Z,73.07
2023-01-03T16:17:02.718Z,78.75
2023-01-03T16:19:30.663Z,74.45
2023-01-03T16:22:33.850Z,68.15
2023-01-03T16:24:53.418Z,60.42
2023-01-03T16:27:25.444Z,70.22
2023-01-03T16:29:52.672Z,68.97
2023-01-03T16:32:34.568Z,54.60
2023-01-03T16:47:16.407Z,62.55
2023-01-03T16:49:45.296Z,60.70
2023-01-03T16:55:57.770Z,68.93
2023-01-03T16:58:39.089Z,58.67
2023-01-03T17:01:09.295Z,56.35
2023-01-03T17:04:15.895Z,56.90
2023-01-03T17:06:54.305Z,42.78
2023-01-03T17:17:27.884Z,44.72
2023-01-03T17:23:34.094Z,42.10
2023-01-03T17:26:03.659Z,58.80
2023-01-03T17:28:39.562Z,60.17
2023-01-03T17:31:06.766Z,60.25
2023-01-03T17:33:34.382Z,91.97
2023-01-03T17:36:05.542Z,83.07
2023-01-03T17:38:34.144Z,87.03
2023-01-03T17:41:03.932Z,109.30
2023-01-03T17:43:38.295Z,141.65
2023-01-03T17:46:34.591Z,139.88
2023-01-03T17:57:15.105Z,98.70
2023-01-03T17:59:42.207Z,83.05
2023-01-03T18:02:29.542Z,87.90
2023-01-03T18:05:21.378Z,55.05
2023-01-03T18:07:46.849Z,59.90
2023-01-03T18:10:23.377Z,51.40
2023-01-03T18:12:50.307Z,45.90
2023-01-03T18:15:19.554Z,37.10
2023-01-03T18:17:47.415Z,36.75
2023-01-03T18:20:17.622Z,26.05
2023-01-03T18:22:46.310Z,35.75
2023-01-03T18:25:31.348Z,23.58
2023-01-03T18:28:02.907Z,34.80
2023-01-03T18:30:30.061Z,35.88
2023-01-03T18:32:57.740Z,40.03
2023-01-03T18:35:30.940Z,33.25
2023-01-03T18:37:59.855Z,38.40
2023-01-03T18:40:29.340Z,31.60
2023-01-03T18:43:09.478Z,34.70
2023-01-03T18:45:37.898Z,29.30
2023-01-03T18:48:05.544Z,32.63
2023-01-03T18:50:33.048Z,31.75
2023-01-03T18:53:04.411Z,27.75
2023-01-03T18:55:38.627Z,27.08
2023-01-03T18:58:23.762Z,30.65
2023-01-03T19:00:50.728Z,27.33
2023-01-03T19:03:24.130Z,45.85
2023-01-03T19:05:52.287Z,53.53
2023-01-03T19:08:20.769Z,26.98
2023-01-03T19:10:47.906Z,22.17
2023-01-03T19:13:30.491Z,32.03
2023-01-03T19:15:57.543Z,40.17
2023-01-03T19:18:24.304Z,54.70
2023-01-03T19:20:51.457Z,47.85
2023-01-03T19:23:28.221Z,51.60
2023-01-03T19:26:01.688Z,45.70
2023-01-03T19:28:29.253Z,60.72
2023-01-03T19:30:56.193Z,58.30
2023-01-03T19:33:23.586Z,63.30
2023-01-03T19:35:50.455Z,68.40
2023-01-03T19:38:17.343Z,78.63
2023-01-03T19:40:47.994Z,95.88
2023-01-03T19:43:22.715Z,94.60
2023-01-03T19:45:50.002Z,118.32
2023-01-03T19:48:22.865Z,121.43
2023-01-03T19:50:51.665Z,110.88
2023-01-03T19:53:18.966Z,113.47
2023-01-03T19:55:49.167Z,111.30
2023-01-03T19:58:18.938Z,104.82
2023-01-03T20:01:04.420Z,94.10
2023-01-03T20:03:57.713Z,97.45
2023-01-03T20:06:25.172Z,77.90
2023-01-03T20:08:54.034Z,82.90
2023-01-03T20:11:23.322Z,81.28
2023-01-03T20:13:50.317Z,84.93
2023-01-03T20:16:17.182Z,82.43
2023-01-03T20:18:44.520Z,78.38
2023-01-03T20:21:27.011Z,85.20
2023-01-03T20:24:01.965Z,89.50
2023-01-03T20:26:32.193Z,112.28
2023-01-03T20:29:00.358Z,93.93
2023-01-03T20:31:30.567Z,95.85
2023-01-03T20:34:00.275Z,76.13
2023-01-03T20:36:38.078Z,69.50
2023-01-03T20:39:21.709Z,69.65
2023-01-03T20:42:03.269Z,59.03
2023-01-03T20:44:30.791Z,46.13
2023-01-03T20:46:57.765Z,47.67
2023-01-03T20:49:29.196Z,41.83
2023-01-03T20:51:56.028Z,50.30
2023-01-03T20:54:22.877Z,48.88
2023-01-03T20:56:49.948Z,45.40
2023-01-03T20:59:19.022Z,54.33
2023-01-03T21:01:47.884Z,38.83
2023-01-03T21:04:17.990Z,37.08
2023-01-03T21:06:45.744Z,48.08
2023-01-03T21:09:14.288Z,47.15
2023-01-03T21:11:41.196Z,35.42
2023-01-03T21:14:09.678Z,35.63
2023-01-03T21:16:45.364Z,33.75
2023-01-03T21:19:17.364Z,41.60
2023-01-03T21:21:46.982Z,28.95
2023-01-03T21:24:15.537Z,32.25
2023-01-03T21:26:42.946Z,31.90
2023-01-03T21:29:10.450Z,33.15
2023-01-03T21:31:38.651Z,37.85
2023-01-03T21:34:07.118Z,42.85
2023-01-03T21:36:38.349Z,48.25
2023-01-03T21:39:05.705Z,65.88
2023-01-03T21:41:35.595Z,57.78
2023-01-03T21:44:04.046Z,70.13
2023-01-03T21:46:33.194Z,80.32
2023-01-03T21:49:01.543Z,106.75
2023-01-03T21:51:39.187Z,76.63
2023-01-03T21:54:12.358Z,83.32
2023-01-03T21:56:46.294Z,80.70
2023-01-03T21:59:15.105Z,80.40
2023-01-03T22:02:05.802Z,89.20
2023-01-03T22:04:33.437Z,77.75
2023-01-03T22:07:03.123Z,79.03
2023-01-03T22:09:50.553Z,90.35
2023-01-03T22:12:29.145Z,88.72
2023-01-03T22:14:56.202Z,69.93
2023-01-03T22:17:22.903Z,59.78
2023-01-03T22:19:50.752Z,79.50
2023-01-03T22:22:17.670Z,86.32
2023-01-03T22:24:44.910Z,78.40
2023-01-03T22:27:11.690Z,85.60
2023-01-03T22:29:38.537Z,79.63
2023-01-03T22:32:09.838Z,73.13
2023-01-03T22:34:40.792Z,91.55
2023-01-03T22:37:07.637Z,83.95
2023-01-03T22:39:34.645Z,86.82
2023-01-03T22:42:01.431Z,80.60
2023-01-03T22:44:28.299Z,76.75
2023-01-03T22:46:55.010Z,81.82
2023-01-03T22:49:21.892Z,60.83
2023-01-03T22:51:48.620Z,51.63
2023-01-03T22:54:21.894Z,57.72
2023-01-03T22:56:48.685Z,60.08
2023-01-03T22:59:16.092Z,65.70
2023-01-03T23:01:43.157Z,60.63
2023-01-03T23:04:10.392Z,53.45
2023-01-03T23:06:37.332Z,60.58
2023-01-03T23:09:04.381Z,58.85
2023-01-03T23:11:52.259Z,60.15
2023-01-03T23:14:21.115Z,61.40
2023-01-03T23:16:49.038Z,58.75
2023-01-03T23:19:22.268Z,63.05
2023-01-03T23:21:49.278Z,58.83
2023-01-03T23:24:22.644Z,57.45
2023-01-03T23:26:51.821Z,58.05
2023-01-03T23:29:18.829Z,63.08
2023-01-03T23:31:46.022Z,57.35
2023-01-03T23:34:13.395Z,61.03
2023-01-03T23:36:43.482Z,59.47
2023-01-03T23:39:15.507Z,66.20
2023-01-03T23:41:42.615Z,64.25
2023-01-03T23:44:09.884Z,59.55
2023-01-03T23:46:36.797Z,56.08
2023-01-03T23:49:04.267Z,53.58
2023-01-03T23:51:31.031Z,59.80
2023-01-03T23:53:58.345Z,70.07
2023-01-03T23:56:28.889Z,67.72
2023-01-03T23:58:56.069Z,66.85
